hwlogo.jpg (8581 bytes)
Home Your Weather Products Services Weather On Your Site Contact
HW Version Logo
Weather Info
Your Weather (Options)
Canadian Weather
International Weather
Enter your " Place, State", US Zip Code or ICAO:  
Forecast Information Radar Information
Gjoa Haven, Nunavut, Canada  Lat: 68.62N, Lon: 95.83W
ICAO Used: CYHK
Current Conditions
Updated: 1:00 AM CST MON FEB 19 2018
Sun & Moon Information
Hazy
Hazy
Temp: -38°C
Humidity: 66%
Wind Speed: N 15 MPH
Barometer: 1017 mb
Dewpoint: -42°C
Heat Index: -38°C
Wind Chill: -54°C
Civil Twilight: 7:33 AM CST Moon Phase:
Waxing Crescent Moon
Sunrise: 8:35 AM CST
Sunset: 4:39 PM CST
Civil Twilight: 5:42 PM CST
Forecast for Gjoa Haven, NU:
(Forecast based on TAF for )
0042 AM CST MON FEB 19 2018
  
OVERNIGHT MORNING AFTERNOON
Partly
Cloudy
Fair Fair
ZoneCast:
Dated: 0042 AM CST MON FEB 19 2018
Overnight...Partly cloudy and ice crystals with winds from the north at 14 mph.

Morning...Partly cloudy and ice crystals with winds from the north at 14 mph. Becoming fair with winds from the northnorthwest at 23 mph.

Afternoon...Fair with winds from the northnorthwest at 23 mph.

Original Encoded TAF:
Dated: 0042 AM CST MON FEB 19 2018
2018/02/19 06:42
TAF CYHK 190538Z 1906/1918 01012KT 21/2SM IC BR SCT080 
      TEMPO 1906/1918 P6SM IC 
      BECMG 1916/1918 34020KT 
      RMK FCST BASED ON AUTO OBS. NXT FCST BY 191200Z